sensor_id;sensor_type;location;lat;lon;timestamp;P1;durP1;ratioP1;P2;durP2;ratioP2
71148;SDS011;59072;42.144;25.200;2023-04-24T00:02:22;8.05;;;4.82;;
71148;SDS011;59072;42.144;25.200;2023-04-24T00:04:48;7.95;;;5.03;;
71148;SDS011;59072;42.144;25.200;2023-04-24T00:07:14;8.98;;;4.70;;
71148;SDS011;59072;42.144;25.200;2023-04-24T00:09:42;9.50;;;4.72;;
71148;SDS011;59072;42.144;25.200;2023-04-24T00:12:08;8.75;;;5.30;;
71148;SDS011;59072;42.144;25.200;2023-04-24T00:14:34;9.95;;;5.20;;
71148;SDS011;59072;42.144;25.200;2023-04-24T00:17:00;8.18;;;4.80;;
71148;SDS011;59072;42.144;25.200;2023-04-24T00:19:27;8.90;;;5.07;;
71148;SDS011;59072;42.144;25.200;2023-04-24T00:21:53;9.30;;;5.03;;
71148;SDS011;59072;42.144;25.200;2023-04-24T00:24:19;9.10;;;4.97;;
71148;SDS011;59072;42.144;25.200;2023-04-24T00:26:45;13.38;;;5.97;;
71148;SDS011;59072;42.144;25.200;2023-04-24T00:29:10;9.93;;;5.47;;
71148;SDS011;59072;42.144;25.200;2023-04-24T00:31:36;10.75;;;5.85;;
71148;SDS011;59072;42.144;25.200;2023-04-24T00:34:02;10.52;;;5.93;;
71148;SDS011;59072;42.144;25.200;2023-04-24T00:36:28;9.52;;;5.30;;
71148;SDS011;59072;42.144;25.200;2023-04-24T00:38:54;9.82;;;6.57;;
71148;SDS011;59072;42.144;25.200;2023-04-24T00:41:20;10.52;;;6.75;;
71148;SDS011;59072;42.144;25.200;2023-04-24T00:43:47;9.07;;;6.75;;
71148;SDS011;59072;42.144;25.200;2023-04-24T00:46:12;8.57;;;5.85;;
71148;SDS011;59072;42.144;25.200;2023-04-24T00:48:39;10.90;;;7.03;;
71148;SDS011;59072;42.144;25.200;2023-04-24T00:51:04;9.10;;;5.65;;
71148;SDS011;59072;42.144;25.200;2023-04-24T00:53:30;9.55;;;5.53;;
71148;SDS011;59072;42.144;25.200;2023-04-24T00:55:55;11.55;;;6.38;;
71148;SDS011;59072;42.144;25.200;2023-04-24T00:58:21;12.23;;;5.80;;
71148;SDS011;59072;42.144;25.200;2023-04-24T01:00:48;11.40;;;6.03;;
71148;SDS011;59072;42.144;25.200;2023-04-24T01:03:18;9.80;;;5.43;;
71148;SDS011;59072;42.144;25.200;2023-04-24T01:05:45;8.70;;;5.60;;
71148;SDS011;59072;42.144;25.200;2023-04-24T01:08:11;9.65;;;5.63;;
71148;SDS011;59072;42.144;25.200;2023-04-24T01:10:36;10.52;;;5.78;;
71148;SDS011;59072;42.144;25.200;2023-04-24T01:13:05;9.13;;;5.15;;
71148;SDS011;59072;42.144;25.200;2023-04-24T01:15:33;11.07;;;6.05;;
71148;SDS011;59072;42.144;25.200;2023-04-24T01:17:58;9.18;;;6.05;;
71148;SDS011;59072;42.144;25.200;2023-04-24T01:20:24;11.75;;;6.30;;
71148;SDS011;59072;42.144;25.200;2023-04-24T01:22:51;10.13;;;5.10;;
71148;SDS011;59072;42.144;25.200;2023-04-24T01:25:16;10.77;;;6.50;;
71148;SDS011;59072;42.144;25.200;2023-04-24T01:27:42;8.25;;;5.03;;
71148;SDS011;59072;42.144;25.200;2023-04-24T01:30:08;10.68;;;5.90;;
71148;SDS011;59072;42.144;25.200;2023-04-24T01:32:35;10.35;;;6.05;;
71148;SDS011;59072;42.144;25.200;2023-04-24T01:35:01;12.07;;;5.95;;
71148;SDS011;59072;42.144;25.200;2023-04-24T01:37:27;8.35;;;5.47;;
71148;SDS011;59072;42.144;25.200;2023-04-24T01:39:53;10.25;;;6.10;;
71148;SDS011;59072;42.144;25.200;2023-04-24T01:42:18;12.30;;;6.22;;
71148;SDS011;59072;42.144;25.200;2023-04-24T01:44:44;9.55;;;6.30;;
71148;SDS011;59072;42.144;25.200;2023-04-24T01:47:10;9.18;;;6.20;;
71148;SDS011;59072;42.144;25.200;2023-04-24T01:49:37;10.15;;;5.97;;
71148;SDS011;59072;42.144;25.200;2023-04-24T01:52:03;10.10;;;5.30;;
71148;SDS011;59072;42.144;25.200;2023-04-24T01:54:28;9.82;;;6.05;;
71148;SDS011;59072;42.144;25.200;2023-04-24T01:56:54;9.73;;;6.32;;
71148;SDS011;59072;42.144;25.200;2023-04-24T01:59:19;10.10;;;5.63;;
71148;SDS011;59072;42.144;25.200;2023-04-24T02:01:45;11.52;;;6.32;;
71148;SDS011;59072;42.144;25.200;2023-04-24T02:04:11;8.80;;;5.30;;
71148;SDS011;59072;42.144;25.200;2023-04-24T02:06:36;9.68;;;5.85;;
71148;SDS011;59072;42.144;25.200;2023-04-24T02:09:02;10.77;;;6.22;;
71148;SDS011;59072;42.144;25.200;2023-04-24T02:11:28;11.13;;;6.35;;
71148;SDS011;59072;42.144;25.200;2023-04-24T02:13:53;10.82;;;5.85;;
71148;SDS011;59072;42.144;25.200;2023-04-24T02:16:19;9.60;;;5.90;;
71148;SDS011;59072;42.144;25.200;2023-04-24T02:18:45;13.45;;;6.35;;
71148;SDS011;59072;42.144;25.200;2023-04-24T02:21:10;9.65;;;6.07;;
71148;SDS011;59072;42.144;25.200;2023-04-24T02:23:36;11.55;;;6.10;;
71148;SDS011;59072;42.144;25.200;2023-04-24T02:26:01;9.27;;;6.00;;
71148;SDS011;59072;42.144;25.200;2023-04-24T02:28:27;11.02;;;6.05;;
71148;SDS011;59072;42.144;25.200;2023-04-24T02:30:53;10.15;;;5.97;;
71148;SDS011;59072;42.144;25.200;2023-04-24T02:33:18;14.38;;;6.50;;
71148;SDS011;59072;42.144;25.200;2023-04-24T02:35:43;8.02;;;6.25;;
71148;SDS011;59072;42.144;25.200;2023-04-24T02:38:09;9.75;;;5.55;;
71148;SDS011;59072;42.144;25.200;2023-04-24T02:40:34;8.98;;;6.00;;
71148;SDS011;59072;42.144;25.200;2023-04-24T02:43:00;11.20;;;6.18;;
71148;SDS011;59072;42.144;25.200;2023-04-24T02:45:25;8.98;;;6.07;;
71148;SDS011;59072;42.144;25.200;2023-04-24T02:47:51;17.10;;;10.20;;
71148;SDS011;59072;42.144;25.200;2023-04-24T02:50:16;10.32;;;5.68;;
71148;SDS011;59072;42.144;25.200;2023-04-24T02:52:41;9.07;;;5.38;;
71148;SDS011;59072;42.144;25.200;2023-04-24T02:55:07;14.65;;;6.15;;
71148;SDS011;59072;42.144;25.200;2023-04-24T02:57:33;11.90;;;5.70;;
71148;SDS011;59072;42.144;25.200;2023-04-24T02:59:59;11.93;;;5.97;;
71148;SDS011;59072;42.144;25.200;2023-04-24T03:02:24;12.20;;;6.53;;
71148;SDS011;59072;42.144;25.200;2023-04-24T03:04:50;26.40;;;11.95;;
71148;SDS011;59072;42.144;25.200;2023-04-24T03:07:15;33.95;;;21.48;;
71148;SDS011;59072;42.144;25.200;2023-04-24T03:09:41;10.65;;;6.75;;
71148;SDS011;59072;42.144;25.200;2023-04-24T03:12:06;9.27;;;6.28;;
71148;SDS011;59072;42.144;25.200;2023-04-24T03:14:32;8.55;;;6.60;;
71148;SDS011;59072;42.144;25.200;2023-04-24T03:16:58;10.95;;;6.60;;
71148;SDS011;59072;42.144;25.200;2023-04-24T03:19:24;10.52;;;6.85;;
71148;SDS011;59072;42.144;25.200;2023-04-24T03:21:50;12.38;;;7.57;;
71148;SDS011;59072;42.144;25.200;2023-04-24T03:24:15;12.55;;;8.23;;
71148;SDS011;59072;42.144;25.200;2023-04-24T03:26:41;13.48;;;7.60;;
71148;SDS011;59072;42.144;25.200;2023-04-24T03:29:06;14.50;;;8.00;;
71148;SDS011;59072;42.144;25.200;2023-04-24T03:31:32;11.95;;;7.95;;
71148;SDS011;59072;42.144;25.200;2023-04-24T03:33:57;14.10;;;8.57;;
71148;SDS011;59072;42.144;25.200;2023-04-24T03:36:23;10.45;;;8.15;;
71148;SDS011;59072;42.144;25.200;2023-04-24T03:38:48;13.82;;;9.98;;
71148;SDS011;59072;42.144;25.200;2023-04-24T03:41:14;13.40;;;9.95;;
71148;SDS011;59072;42.144;25.200;2023-04-24T03:43:39;11.70;;;8.75;;
71148;SDS011;59072;42.144;25.200;2023-04-24T03:46:05;14.65;;;9.32;;
71148;SDS011;59072;42.144;25.200;2023-04-24T03:48:30;14.13;;;8.98;;
71148;SDS011;59072;42.144;25.200;2023-04-24T03:50:56;14.25;;;10.20;;
71148;SDS011;59072;42.144;25.200;2023-04-24T03:53:21;11.98;;;8.70;;
71148;SDS011;59072;42.144;25.200;2023-04-24T03:55:47;17.30;;;9.27;;
71148;SDS011;59072;42.144;25.200;2023-04-24T03:58:12;11.95;;;8.77;;
71148;SDS011;59072;42.144;25.200;2023-04-24T04:00:40;14.02;;;8.07;;
71148;SDS011;59072;42.144;25.200;2023-04-24T04:03:06;13.40;;;8.20;;
71148;SDS011;59072;42.144;25.200;2023-04-24T04:05:31;14.18;;;8.57;;
71148;SDS011;59072;42.144;25.200;2023-04-24T04:07:57;11.15;;;7.97;;
71148;SDS011;59072;42.144;25.200;2023-04-24T04:10:22;11.05;;;7.57;;
71148;SDS011;59072;42.144;25.200;2023-04-24T04:12:48;11.25;;;7.97;;
71148;SDS011;59072;42.144;25.200;2023-04-24T04:15:13;11.27;;;7.80;;
71148;SDS011;59072;42.144;25.200;2023-04-24T04:17:39;13.65;;;8.43;;
71148;SDS011;59072;42.144;25.200;2023-04-24T04:20:04;13.07;;;8.27;;
71148;SDS011;59072;42.144;25.200;2023-04-24T04:22:39;11.68;;;8.25;;
71148;SDS011;59072;42.144;25.200;2023-04-24T04:25:05;13.07;;;8.20;;
71148;SDS011;59072;42.144;25.200;2023-04-24T04:27:31;13.73;;;8.27;;
71148;SDS011;59072;42.144;25.200;2023-04-24T04:30:00;13.25;;;8.82;;
71148;SDS011;59072;42.144;25.200;2023-04-24T04:32:30;11.45;;;7.72;;
71148;SDS011;59072;42.144;25.200;2023-04-24T04:34:58;15.07;;;8.70;;
71148;SDS011;59072;42.144;25.200;2023-04-24T04:37:27;12.35;;;7.90;;
71148;SDS011;59072;42.144;25.200;2023-04-24T04:39:53;12.90;;;8.52;;
71148;SDS011;59072;42.144;25.200;2023-04-24T04:42:19;11.73;;;7.93;;
71148;SDS011;59072;42.144;25.200;2023-04-24T04:44:45;12.48;;;7.90;;
71148;SDS011;59072;42.144;25.200;2023-04-24T04:47:10;13.10;;;7.90;;
71148;SDS011;59072;42.144;25.200;2023-04-24T04:49:37;12.55;;;7.95;;
71148;SDS011;59072;42.144;25.200;2023-04-24T04:52:03;14.02;;;9.10;;
71148;SDS011;59072;42.144;25.200;2023-04-24T04:54:28;13.25;;;8.30;;
71148;SDS011;59072;42.144;25.200;2023-04-24T04:56:54;14.45;;;9.65;;
71148;SDS011;59072;42.144;25.200;2023-04-24T04:59:20;17.05;;;9.93;;
71148;SDS011;59072;42.144;25.200;2023-04-24T05:01:45;17.33;;;9.55;;
71148;SDS011;59072;42.144;25.200;2023-04-24T05:04:11;16.00;;;9.63;;
71148;SDS011;59072;42.144;25.200;2023-04-24T05:06:36;15.63;;;8.70;;
71148;SDS011;59072;42.144;25.200;2023-04-24T05:09:02;11.77;;;8.45;;
71148;SDS011;59072;42.144;25.200;2023-04-24T05:11:28;11.18;;;8.23;;
71148;SDS011;59072;42.144;25.200;2023-04-24T05:13:54;17.50;;;9.82;;
71148;SDS011;59072;42.144;25.200;2023-04-24T05:16:20;12.55;;;8.82;;
71148;SDS011;59072;42.144;25.200;2023-04-24T05:18:45;15.23;;;9.88;;
71148;SDS011;59072;42.144;25.200;2023-04-24T05:21:11;16.15;;;9.13;;
71148;SDS011;59072;42.144;25.200;2023-04-24T05:23:36;15.65;;;9.52;;
71148;SDS011;59072;42.144;25.200;2023-04-24T05:26:02;15.57;;;9.60;;
71148;SDS011;59072;42.144;25.200;2023-04-24T05:28:27;23.77;;;9.40;;
71148;SDS011;59072;42.144;25.200;2023-04-24T05:30:56;13.93;;;8.77;;
71148;SDS011;59072;42.144;25.200;2023-04-24T05:33:21;12.75;;;8.50;;
71148;SDS011;59072;42.144;25.200;2023-04-24T05:35:47;14.82;;;9.48;;
71148;SDS011;59072;42.144;25.200;2023-04-24T05:38:13;13.77;;;8.60;;
71148;SDS011;59072;42.144;25.200;2023-04-24T05:40:39;14.35;;;8.40;;
71148;SDS011;59072;42.144;25.200;2023-04-24T05:43:05;16.27;;;9.15;;
71148;SDS011;59072;42.144;25.200;2023-04-24T05:45:30;14.95;;;9.50;;
71148;SDS011;59072;42.144;25.200;2023-04-24T05:47:56;14.63;;;9.00;;
71148;SDS011;59072;42.144;25.200;2023-04-24T05:50:22;13.85;;;8.88;;
71148;SDS011;59072;42.144;25.200;2023-04-24T05:52:47;15.75;;;9.30;;
71148;SDS011;59072;42.144;25.200;2023-04-24T05:55:13;15.43;;;8.93;;
71148;SDS011;59072;42.144;25.200;2023-04-24T05:57:38;15.02;;;9.20;;
71148;SDS011;59072;42.144;25.200;2023-04-24T06:00:04;14.05;;;8.38;;
71148;SDS011;59072;42.144;25.200;2023-04-24T06:02:30;17.35;;;8.55;;
71148;SDS011;59072;42.144;25.200;2023-04-24T06:04:58;13.02;;;8.10;;
71148;SDS011;59072;42.144;25.200;2023-04-24T06:07:24;13.45;;;8.73;;
71148;SDS011;59072;42.144;25.200;2023-04-24T06:09:53;12.02;;;7.85;;
71148;SDS011;59072;42.144;25.200;2023-04-24T06:12:18;14.95;;;8.88;;
71148;SDS011;59072;42.144;25.200;2023-04-24T06:14:44;15.07;;;7.55;;
71148;SDS011;59072;42.144;25.200;2023-04-24T06:17:09;15.05;;;8.55;;
71148;SDS011;59072;42.144;25.200;2023-04-24T06:19:35;14.13;;;9.38;;
71148;SDS011;59072;42.144;25.200;2023-04-24T06:22:00;14.80;;;9.60;;
71148;SDS011;59072;42.144;25.200;2023-04-24T06:24:29;17.55;;;9.60;;
71148;SDS011;59072;42.144;25.200;2023-04-24T06:26:54;14.32;;;9.05;;
71148;SDS011;59072;42.144;25.200;2023-04-24T06:29:21;12.77;;;8.15;;
71148;SDS011;59072;42.144;25.200;2023-04-24T06:31:47;16.35;;;9.35;;
71148;SDS011;59072;42.144;25.200;2023-04-24T06:34:12;14.30;;;8.68;;
71148;SDS011;59072;42.144;25.200;2023-04-24T06:36:38;15.93;;;9.10;;
71148;SDS011;59072;42.144;25.200;2023-04-24T06:39:03;13.05;;;8.52;;
71148;SDS011;59072;42.144;25.200;2023-04-24T06:41:29;14.38;;;7.95;;
71148;SDS011;59072;42.144;25.200;2023-04-24T06:43:54;11.23;;;7.80;;
71148;SDS011;59072;42.144;25.200;2023-04-24T06:46:20;16.10;;;8.60;;
71148;SDS011;59072;42.144;25.200;2023-04-24T06:48:51;14.80;;;8.05;;
71148;SDS011;59072;42.144;25.200;2023-04-24T06:51:23;12.80;;;7.88;;
71148;SDS011;59072;42.144;25.200;2023-04-24T06:53:48;13.82;;;7.90;;
71148;SDS011;59072;42.144;25.200;2023-04-24T06:56:15;12.52;;;7.45;;
71148;SDS011;59072;42.144;25.200;2023-04-24T06:58:40;12.88;;;7.72;;
71148;SDS011;59072;42.144;25.200;2023-04-24T07:01:06;13.50;;;8.27;;
71148;SDS011;59072;42.144;25.200;2023-04-24T07:03:32;13.13;;;7.80;;
71148;SDS011;59072;42.144;25.200;2023-04-24T07:05:57;14.35;;;8.23;;
71148;SDS011;59072;42.144;25.200;2023-04-24T07:08:23;15.20;;;10.40;;
71148;SDS011;59072;42.144;25.200;2023-04-24T07:10:49;14.50;;;9.95;;
71148;SDS011;59072;42.144;25.200;2023-04-24T07:13:15;20.23;;;12.95;;
71148;SDS011;59072;42.144;25.200;2023-04-24T07:15:42;13.60;;;8.48;;
71148;SDS011;59072;42.144;25.200;2023-04-24T07:18:07;13.90;;;9.85;;
71148;SDS011;59072;42.144;25.200;2023-04-24T07:20:33;18.27;;;11.00;;
71148;SDS011;59072;42.144;25.200;2023-04-24T07:22:59;16.90;;;12.05;;
71148;SDS011;59072;42.144;25.200;2023-04-24T07:25:24;12.65;;;8.77;;
71148;SDS011;59072;42.144;25.200;2023-04-24T07:27:50;12.85;;;8.55;;
71148;SDS011;59072;42.144;25.200;2023-04-24T07:30:15;13.95;;;8.85;;
71148;SDS011;59072;42.144;25.200;2023-04-24T07:32:41;13.20;;;8.25;;
71148;SDS011;59072;42.144;25.200;2023-04-24T07:35:06;12.80;;;7.93;;
71148;SDS011;59072;42.144;25.200;2023-04-24T07:37:34;13.15;;;8.10;;
71148;SDS011;59072;42.144;25.200;2023-04-24T07:40:00;17.17;;;9.65;;
71148;SDS011;59072;42.144;25.200;2023-04-24T07:42:25;16.92;;;8.93;;
71148;SDS011;59072;42.144;25.200;2023-04-24T07:44:50;13.57;;;9.45;;
71148;SDS011;59072;42.144;25.200;2023-04-24T07:47:16;13.82;;;8.60;;
71148;SDS011;59072;42.144;25.200;2023-04-24T07:49:42;12.80;;;8.13;;
71148;SDS011;59072;42.144;25.200;2023-04-24T07:52:07;11.23;;;7.93;;
71148;SDS011;59072;42.144;25.200;2023-04-24T07:54:33;17.80;;;9.90;;
71148;SDS011;59072;42.144;25.200;2023-04-24T07:56:58;12.50;;;8.07;;
71148;SDS011;59072;42.144;25.200;2023-04-24T07:59:25;14.20;;;8.43;;
71148;SDS011;59072;42.144;25.200;2023-04-24T08:01:50;14.32;;;7.60;;
71148;SDS011;59072;42.144;25.200;2023-04-24T08:04:16;9.98;;;7.68;;
71148;SDS011;59072;42.144;25.200;2023-04-24T08:06:42;12.43;;;7.13;;
71148;SDS011;59072;42.144;25.200;2023-04-24T08:09:08;11.38;;;7.20;;
71148;SDS011;59072;42.144;25.200;2023-04-24T08:11:34;11.52;;;7.15;;
71148;SDS011;59072;42.144;25.200;2023-04-24T08:13:59;9.55;;;6.50;;
71148;SDS011;59072;42.144;25.200;2023-04-24T08:16:25;11.27;;;6.65;;
71148;SDS011;59072;42.144;25.200;2023-04-24T08:18:51;10.70;;;6.55;;
71148;SDS011;59072;42.144;25.200;2023-04-24T08:21:17;12.82;;;6.60;;
71148;SDS011;59072;42.144;25.200;2023-04-24T08:23:44;9.35;;;6.30;;
71148;SDS011;59072;42.144;25.200;2023-04-24T08:26:10;11.43;;;6.65;;
71148;SDS011;59072;42.144;25.200;2023-04-24T08:28:36;11.30;;;6.30;;
71148;SDS011;59072;42.144;25.200;2023-04-24T08:31:02;15.20;;;6.80;;
71148;SDS011;59072;42.144;25.200;2023-04-24T08:33:28;9.27;;;6.38;;
71148;SDS011;59072;42.144;25.200;2023-04-24T08:35:59;10.65;;;7.20;;
71148;SDS011;59072;42.144;25.200;2023-04-24T08:38:25;9.80;;;6.60;;
71148;SDS011;59072;42.144;25.200;2023-04-24T08:40:51;12.77;;;6.65;;
71148;SDS011;59072;42.144;25.200;2023-04-24T08:43:17;11.07;;;6.90;;
71148;SDS011;59072;42.144;25.200;2023-04-24T08:45:43;10.68;;;6.22;;
71148;SDS011;59072;42.144;25.200;2023-04-24T08:48:09;8.35;;;6.60;;
71148;SDS011;59072;42.144;25.200;2023-04-24T08:50:35;10.15;;;6.50;;
71148;SDS011;59072;42.144;25.200;2023-04-24T08:53:02;12.43;;;6.70;;
71148;SDS011;59072;42.144;25.200;2023-04-24T08:55:27;11.40;;;6.28;;
71148;SDS011;59072;42.144;25.200;2023-04-24T09:00:21;7.93;;;5.97;;
71148;SDS011;59072;42.144;25.200;2023-04-24T09:02:48;8.98;;;6.38;;
71148;SDS011;59072;42.144;25.200;2023-04-24T09:05:16;8.85;;;6.60;;
71148;SDS011;59072;42.144;25.200;2023-04-24T09:07:45;9.15;;;6.05;;
71148;SDS011;59072;42.144;25.200;2023-04-24T09:10:14;9.18;;;5.85;;
71148;SDS011;59072;42.144;25.200;2023-04-24T09:12:41;10.63;;;6.55;;
71148;SDS011;59072;42.144;25.200;2023-04-24T09:15:07;10.75;;;6.68;;
71148;SDS011;59072;42.144;25.200;2023-04-24T09:17:33;12.88;;;6.47;;
71148;SDS011;59072;42.144;25.200;2023-04-24T09:20:00;14.10;;;5.80;;
71148;SDS011;59072;42.144;25.200;2023-04-24T09:22:27;8.88;;;5.95;;
71148;SDS011;59072;42.144;25.200;2023-04-24T09:25:05;10.05;;;6.03;;
71148;SDS011;59072;42.144;25.200;2023-04-24T09:27:32;8.43;;;6.05;;
71148;SDS011;59072;42.144;25.200;2023-04-24T09:29:58;6.75;;;4.47;;
71148;SDS011;59072;42.144;25.200;2023-04-24T09:32:25;9.15;;;5.68;;
71148;SDS011;59072;42.144;25.200;2023-04-24T09:35:11;10.77;;;5.20;;
71148;SDS011;59072;42.144;25.200;2023-04-24T09:37:39;7.82;;;5.20;;
71148;SDS011;59072;42.144;25.200;2023-04-24T09:40:13;7.30;;;5.30;;
71148;SDS011;59072;42.144;25.200;2023-04-24T09:42:44;8.07;;;5.20;;
71148;SDS011;59072;42.144;25.200;2023-04-24T09:45:11;8.00;;;5.53;;
71148;SDS011;59072;42.144;25.200;2023-04-24T09:47:38;7.90;;;5.65;;
71148;SDS011;59072;42.144;25.200;2023-04-24T09:50:10;9.50;;;5.90;;
71148;SDS011;59072;42.144;25.200;2023-04-24T09:52:41;9.88;;;5.68;;
71148;SDS011;59072;42.144;25.200;2023-04-24T09:55:11;10.32;;;5.40;;
71148;SDS011;59072;42.144;25.200;2023-04-24T09:57:53;9.07;;;5.38;;
71148;SDS011;59072;42.144;25.200;2023-04-24T10:00:28;8.15;;;5.57;;
71148;SDS011;59072;42.144;25.200;2023-04-24T10:02:56;9.13;;;4.97;;
71148;SDS011;59072;42.144;25.200;2023-04-24T10:05:25;8.85;;;5.53;;
71148;SDS011;59072;42.144;25.200;2023-04-24T10:07:56;8.80;;;5.32;;
71148;SDS011;59072;42.144;25.200;2023-04-24T10:10:22;8.13;;;5.40;;
71148;SDS011;59072;42.144;25.200;2023-04-24T10:12:48;8.13;;;5.45;;
71148;SDS011;59072;42.144;25.200;2023-04-24T10:17:45;6.80;;;5.03;;
71148;SDS011;59072;42.144;25.200;2023-04-24T10:20:17;9.02;;;5.13;;
71148;SDS011;59072;42.144;25.200;2023-04-24T10:22:45;10.10;;;5.30;;
71148;SDS011;59072;42.144;25.200;2023-04-24T10:25:14;6.70;;;4.53;;
71148;SDS011;59072;42.144;25.200;2023-04-24T10:27:42;6.65;;;4.55;;
71148;SDS011;59072;42.144;25.200;2023-04-24T10:30:08;14.52;;;5.07;;
71148;SDS011;59072;42.144;25.200;2023-04-24T10:32:37;7.93;;;4.63;;
71148;SDS011;59072;42.144;25.200;2023-04-24T10:35:02;7.05;;;4.47;;
71148;SDS011;59072;42.144;25.200;2023-04-24T10:37:28;12.23;;;5.93;;
71148;SDS011;59072;42.144;25.200;2023-04-24T10:40:01;8.32;;;4.88;;
71148;SDS011;59072;42.144;25.200;2023-04-24T10:42:27;7.75;;;4.28;;
71148;SDS011;59072;42.144;25.200;2023-04-24T10:44:53;6.57;;;4.07;;
71148;SDS011;59072;42.144;25.200;2023-04-24T10:47:19;6.20;;;4.13;;
71148;SDS011;59072;42.144;25.200;2023-04-24T10:49:44;8.43;;;4.80;;
71148;SDS011;59072;42.144;25.200;2023-04-24T10:52:10;8.50;;;4.88;;
71148;SDS011;59072;42.144;25.200;2023-04-24T10:54:46;8.88;;;4.80;;
71148;SDS011;59072;42.144;25.200;2023-04-24T10:59:48;7.93;;;4.90;;
71148;SDS011;59072;42.144;25.200;2023-04-24T11:02:14;6.30;;;4.88;;
71148;SDS011;59072;42.144;25.200;2023-04-24T11:04:40;6.90;;;4.72;;
71148;SDS011;59072;42.144;25.200;2023-04-24T11:07:08;8.73;;;5.18;;
71148;SDS011;59072;42.144;25.200;2023-04-24T11:09:35;10.25;;;5.07;;
71148;SDS011;59072;42.144;25.200;2023-04-24T11:12:05;7.10;;;4.78;;
71148;SDS011;59072;42.144;25.200;2023-04-24T11:17:30;6.28;;;5.00;;
71148;SDS011;59072;42.144;25.200;2023-04-24T11:22:41;7.88;;;5.07;;
71148;SDS011;59072;42.144;25.200;2023-04-24T11:25:07;12.05;;;5.22;;
71148;SDS011;59072;42.144;25.200;2023-04-24T11:27:41;7.22;;;4.93;;
71148;SDS011;59072;42.144;25.200;2023-04-24T11:30:08;7.70;;;4.72;;
71148;SDS011;59072;42.144;25.200;2023-04-24T11:32:36;7.28;;;5.07;;
71148;SDS011;59072;42.144;25.200;2023-04-24T11:35:04;11.90;;;5.00;;
71148;SDS011;59072;42.144;25.200;2023-04-24T11:37:39;10.27;;;5.03;;
71148;SDS011;59072;42.144;25.200;2023-04-24T11:40:10;8.43;;;4.65;;
71148;SDS011;59072;42.144;25.200;2023-04-24T11:42:43;6.50;;;4.47;;
71148;SDS011;59072;42.144;25.200;2023-04-24T11:45:10;8.13;;;4.90;;
71148;SDS011;59072;42.144;25.200;2023-04-24T11:47:37;8.68;;;4.95;;
71148;SDS011;59072;42.144;25.200;2023-04-24T11:50:04;7.78;;;4.25;;
71148;SDS011;59072;42.144;25.200;2023-04-24T11:52:31;10.82;;;4.63;;
71148;SDS011;59072;42.144;25.200;2023-04-24T11:55:01;7.63;;;4.82;;
71148;SDS011;59072;42.144;25.200;2023-04-24T11:57:27;7.05;;;4.45;;
71148;SDS011;59072;42.144;25.200;2023-04-24T11:59:58;6.53;;;4.45;;
71148;SDS011;59072;42.144;25.200;2023-04-24T12:02:24;8.85;;;5.15;;
71148;SDS011;59072;42.144;25.200;2023-04-24T12:04:51;7.90;;;4.27;;
71148;SDS011;59072;42.144;25.200;2023-04-24T12:07:17;8.07;;;5.20;;
71148;SDS011;59072;42.144;25.200;2023-04-24T12:09:47;7.88;;;4.90;;
71148;SDS011;59072;42.144;25.200;2023-04-24T12:12:15;7.85;;;4.22;;
71148;SDS011;59072;42.144;25.200;2023-04-24T12:14:42;9.27;;;4.53;;
71148;SDS011;59072;42.144;25.200;2023-04-24T12:17:23;8.43;;;4.75;;
71148;SDS011;59072;42.144;25.200;2023-04-24T12:20:07;7.80;;;5.18;;
71148;SDS011;59072;42.144;25.200;2023-04-24T12:25:28;7.43;;;5.18;;
71148;SDS011;59072;42.144;25.200;2023-04-24T12:30:31;5.80;;;4.10;;
71148;SDS011;59072;42.144;25.200;2023-04-24T12:35:25;7.28;;;4.20;;
71148;SDS011;59072;42.144;25.200;2023-04-24T12:37:52;8.45;;;4.78;;
71148;SDS011;59072;42.144;25.200;2023-04-24T12:40:20;7.38;;;4.25;;
71148;SDS011;59072;42.144;25.200;2023-04-24T12:42:47;7.90;;;4.38;;
71148;SDS011;59072;42.144;25.200;2023-04-24T12:45:16;8.30;;;4.20;;
71148;SDS011;59072;42.144;25.200;2023-04-24T12:47:43;6.68;;;4.07;;
71148;SDS011;59072;42.144;25.200;2023-04-24T12:50:10;6.57;;;4.22;;
71148;SDS011;59072;42.144;25.200;2023-04-24T12:52:37;7.95;;;3.95;;
71148;SDS011;59072;42.144;25.200;2023-04-24T12:55:04;9.70;;;4.30;;
71148;SDS011;59072;42.144;25.200;2023-04-24T12:57:33;6.22;;;4.13;;
71148;SDS011;59072;42.144;25.200;2023-04-24T13:00:00;10.52;;;4.60;;
71148;SDS011;59072;42.144;25.200;2023-04-24T13:02:26;7.15;;;4.20;;
71148;SDS011;59072;42.144;25.200;2023-04-24T13:04:54;6.40;;;4.25;;
71148;SDS011;59072;42.144;25.200;2023-04-24T13:07:19;6.38;;;4.30;;
71148;SDS011;59072;42.144;25.200;2023-04-24T13:09:45;5.60;;;4.25;;
71148;SDS011;59072;42.144;25.200;2023-04-24T13:12:13;6.95;;;3.88;;
71148;SDS011;59072;42.144;25.200;2023-04-24T13:14:39;7.00;;;3.63;;
71148;SDS011;59072;42.144;25.200;2023-04-24T13:17:04;5.55;;;4.13;;
71148;SDS011;59072;42.144;25.200;2023-04-24T13:19:35;6.97;;;4.15;;
71148;SDS011;59072;42.144;25.200;2023-04-24T13:22:04;6.70;;;4.95;;
71148;SDS011;59072;42.144;25.200;2023-04-24T13:24:30;7.43;;;3.63;;
71148;SDS011;59072;42.144;25.200;2023-04-24T13:26:57;5.78;;;3.97;;
71148;SDS011;59072;42.144;25.200;2023-04-24T13:29:22;6.63;;;3.80;;
71148;SDS011;59072;42.144;25.200;2023-04-24T13:31:51;6.35;;;4.07;;
71148;SDS011;59072;42.144;25.200;2023-04-24T13:34:19;6.72;;;4.03;;
71148;SDS011;59072;42.144;25.200;2023-04-24T13:36:45;7.80;;;4.40;;
71148;SDS011;59072;42.144;25.200;2023-04-24T13:39:11;6.60;;;3.30;;
71148;SDS011;59072;42.144;25.200;2023-04-24T13:41:36;9.55;;;5.07;;
71148;SDS011;59072;42.144;25.200;2023-04-24T13:44:05;8.45;;;4.82;;
71148;SDS011;59072;42.144;25.200;2023-04-24T13:46:31;5.72;;;3.88;;
71148;SDS011;59072;42.144;25.200;2023-04-24T13:48:57;6.65;;;3.72;;
71148;SDS011;59072;42.144;25.200;2023-04-24T13:51:23;7.50;;;3.85;;
71148;SDS011;59072;42.144;25.200;2023-04-24T13:53:50;8.30;;;3.75;;
71148;SDS011;59072;42.144;25.200;2023-04-24T13:56:16;6.47;;;4.38;;
71148;SDS011;59072;42.144;25.200;2023-04-24T13:58:41;6.10;;;2.95;;
71148;SDS011;59072;42.144;25.200;2023-04-24T14:01:07;5.45;;;3.70;;
71148;SDS011;59072;42.144;25.200;2023-04-24T14:03:33;5.35;;;3.40;;
71148;SDS011;59072;42.144;25.200;2023-04-24T14:05:58;5.30;;;3.05;;
71148;SDS011;59072;42.144;25.200;2023-04-24T14:08:24;7.20;;;3.67;;
71148;SDS011;59072;42.144;25.200;2023-04-24T14:10:50;4.57;;;3.58;;
71148;SDS011;59072;42.144;25.200;2023-04-24T14:13:16;5.93;;;3.72;;
71148;SDS011;59072;42.144;25.200;2023-04-24T14:15:41;6.72;;;3.35;;
71148;SDS011;59072;42.144;25.200;2023-04-24T14:18:07;7.30;;;3.78;;
71148;SDS011;59072;42.144;25.200;2023-04-24T14:20:32;7.22;;;3.95;;
71148;SDS011;59072;42.144;25.200;2023-04-24T14:22:58;9.38;;;4.32;;
71148;SDS011;59072;42.144;25.200;2023-04-24T14:25:26;6.30;;;3.83;;
71148;SDS011;59072;42.144;25.200;2023-04-24T14:27:51;5.40;;;3.92;;
71148;SDS011;59072;42.144;25.200;2023-04-24T14:30:17;4.90;;;4.15;;
71148;SDS011;59072;42.144;25.200;2023-04-24T14:32:43;8.35;;;4.70;;
71148;SDS011;59072;42.144;25.200;2023-04-24T14:35:09;9.10;;;4.35;;
71148;SDS011;59072;42.144;25.200;2023-04-24T14:37:34;7.63;;;4.18;;
71148;SDS011;59072;42.144;25.200;2023-04-24T14:40:01;6.40;;;4.03;;
71148;SDS011;59072;42.144;25.200;2023-04-24T14:42:27;6.55;;;4.25;;
71148;SDS011;59072;42.144;25.200;2023-04-24T14:44:53;7.03;;;4.60;;
71148;SDS011;59072;42.144;25.200;2023-04-24T14:47:19;7.80;;;4.30;;